Time;durP1;ratioP1;P1;durP2;ratioP2;P2;SDS_P1;SDS_P2;PMS_P1;PMS_P2;Temp;Humidity;BMP_temperature;BMP_pressure;BME280_temperature;BME280_humidity;BME280_pressure;Samples;Min_cycle;Max_cycle;Signal;HPM_P1;HPM_P2
2021/10/31 00:02:12;;;;;;;23.58;16.67;;;;;;;;;;5020832;28;20021;-85
2021/10/31 00:04:38;;;;;;;21.15;15.52;;;;;;;;;;5038471;28;20431;-85
2021/10/31 00:07:04;;;;;;;22.33;15.50;;;;;;;;;;5020857;28;20029;-85
2021/10/31 00:09:30;;;;;;;24.63;16.73;;;;;;;;;;5038102;28;20044;-85
2021/10/31 00:15:00;;;;;;;23.98;16.08;;;;;;;;;;5037853;28;20064;-86
2021/10/31 00:17:26;;;;;;;27.95;17.00;;;;;;;;;;5038253;28;20038;-86
2021/10/31 00:19:53;;;;;;;27.95;16.65;;;;;;;;;;5038194;28;20099;-87
2021/10/31 00:22:19;;;;;;;24.90;17.23;;;;;;;;;;5038542;28;20036;-85
2021/10/31 00:24:46;;;;;;;27.10;17.42;;;;;;;;;;5020696;28;20033;-85
2021/10/31 00:27:12;;;;;;;30.80;17.98;;;;;;;;;;5020606;28;20061;-85
2021/10/31 00:29:38;;;;;;;29.60;18.13;;;;;;;;;;5020570;28;20348;-86
2021/10/31 00:32:04;;;;;;;27.98;17.70;;;;;;;;;;5038254;28;20026;-86
2021/10/31 00:34:31;;;;;;;22.42;15.43;;;;;;;;;;5037846;28;20080;-86
2021/10/31 00:36:57;;;;;;;24.73;16.00;;;;;;;;;;5020653;28;20053;-85
2021/10/31 00:39:23;;;;;;;24.63;15.20;;;;;;;;;;5019912;28;20081;-85
2021/10/31 00:41:49;;;;;;;25.17;15.18;;;;;;;;;;5037552;28;20060;-85
2021/10/31 00:44:15;;;;;;;23.42;15.55;;;;;;;;;;5037892;28;20093;-86
2021/10/31 00:46:41;;;;;;;23.73;15.93;;;;;;;;;;5037613;28;20076;-85
2021/10/31 00:49:07;;;;;;;23.98;15.80;;;;;;;;;;5037627;28;20026;-85
2021/10/31 00:51:33;;;;;;;23.20;15.57;;;;;;;;;;5020420;28;20113;-89
2021/10/31 00:54:03;;;;;;;22.65;15.88;;;;;;;;;;5019934;28;20033;-89
2021/10/31 00:59:32;;;;;;;25.65;16.80;;;;;;;;;;5037946;28;20040;-89
2021/10/31 01:02:01;;;;;;;24.90;16.75;;;;;;;;;;5020332;28;20141;-89
2021/10/31 01:04:27;;;;;;;22.67;15.82;;;;;;;;;;5020123;28;20048;-89
2021/10/31 01:06:53;;;;;;;29.85;17.48;;;;;;;;;;5037737;28;20029;-87
2021/10/31 01:09:23;;;;;;;29.60;18.98;;;;;;;;;;5037302;28;20032;-87
2021/10/31 01:12:03;;;;;;;29.73;17.25;;;;;;;;;;5020125;28;20022;-86
2021/10/31 01:14:43;;;;;;;27.98;17.05;;;;;;;;;;5037353;28;20036;-87
2021/10/31 01:17:24;;;;;;;28.75;18.17;;;;;;;;;;5037379;28;20040;-87
2021/10/31 01:20:09;;;;;;;25.40;17.63;;;;;;;;;;5037728;28;20022;-87
2021/10/31 01:23:07;;;;;;;27.60;17.88;;;;;;;;;;5037853;28;20358;-86
2021/10/31 01:28:39;;;;;;;31.50;19.63;;;;;;;;;;4938626;29;20046;-85
2021/10/31 01:31:24;;;;;;;30.60;18.98;;;;;;;;;;4938418;29;20071;-86
2021/10/31 01:34:09;;;;;;;31.23;19.83;;;;;;;;;;4938324;29;20024;-86
2021/10/31 01:36:44;;;;;;;32.45;20.45;;;;;;;;;;4922241;29;20035;-86
2021/10/31 01:39:24;;;;;;;26.05;17.73;;;;;;;;;;4938274;29;20114;-85
2021/10/31 01:41:54;;;;;;;30.17;18.73;;;;;;;;;;4938523;29;20032;-86
2021/10/31 01:44:39;;;;;;;27.98;18.27;;;;;;;;;;4922595;29;20059;-86
2021/10/31 01:47:13;;;;;;;28.20;19.15;;;;;;;;;;4937749;28;20028;-88
2021/10/31 01:49:47;;;;;;;28.23;19.15;;;;;;;;;;4938238;29;20039;-88
2021/10/31 01:52:19;;;;;;;29.40;19.65;;;;;;;;;;4922426;29;20107;-86
2021/10/31 01:54:51;;;;;;;30.15;18.20;;;;;;;;;;4938072;29;20047;-85
2021/10/31 01:57:18;;;;;;;;;;;;;;;;;;4938530;29;20530;-86
2021/10/31 01:59:47;;;;;;;29.42;19.00;;;;;;;;;;4940379;29;19906;-86
2021/10/31 02:02:14;;;;;;;30.15;18.80;;;;;;;;;;5017268;28;20045;-86
2021/10/31 02:04:41;;;;;;;32.60;20.63;;;;;;;;;;5021019;28;20026;-87
2021/10/31 02:07:07;;;;;;;29.35;19.33;;;;;;;;;;5020908;28;20290;-87
2021/10/31 02:09:34;;;;;;;30.88;18.80;;;;;;;;;;5030971;28;20063;-87
2021/10/31 02:12:21;;;;;;;31.98;20.60;;;;;;;;;;5040852;28;20025;-86
2021/10/31 02:14:47;;;;;;;27.40;18.08;;;;;;;;;;5019809;28;20163;-86
2021/10/31 02:17:17;;;;;;;31.33;19.05;;;;;;;;;;5038865;28;20025;-86
2021/10/31 02:19:44;;;;;;;29.80;18.17;;;;;;;;;;5040756;28;20045;-86
2021/10/31 02:22:13;;;;;;;24.50;17.60;;;;;;;;;;5022999;28;20025;-86
2021/10/31 02:24:39;;;;;;;26.08;17.45;;;;;;;;;;5040539;28;20033;-89
2021/10/31 02:27:12;;;;;;;25.13;17.75;;;;;;;;;;5040654;28;20304;-90
2021/10/31 02:30:05;;;;;;;29.17;18.10;;;;;;;;;;5022974;28;20466;-90
2021/10/31 02:32:32;;;;;;;25.17;17.25;;;;;;;;;;5020338;28;20059;-90
2021/10/31 02:34:59;;;;;;;29.90;17.63;;;;;;;;;;5040199;28;20017;-87
2021/10/31 02:37:26;;;;;;;26.05;17.20;;;;;;;;;;5022444;28;20052;-87
2021/10/31 02:39:52;;;;;;;24.17;16.50;;;;;;;;;;5040037;28;20045;-87
2021/10/31 02:42:18;;;;;;;24.83;16.05;;;;;;;;;;5039877;28;20025;-86
2021/10/31 02:44:45;;;;;;;25.58;16.70;;;;;;;;;;5040327;28;20347;-88
2021/10/31 02:47:31;;;;;;;23.60;16.38;;;;;;;;;;5040247;28;20036;-88
2021/10/31 02:49:57;;;;;;;24.38;16.85;;;;;;;;;;4966529;28;20311;-87
2021/10/31 02:52:33;;;;;;;20.95;14.70;;;;;;;;;;4979392;28;20141;-87
2021/10/31 02:55:18;;;;;;;22.38;15.38;;;;;;;;;;4963123;28;20110;-87
2021/10/31 03:03:54;;;;;;;26.92;16.90;;;;;;;;;;4979381;28;20033;-87
2021/10/31 03:06:21;;;;;;;25.75;17.30;;;;;;;;;;4979066;28;20053;-87
2021/10/31 03:08:47;;;;;;;23.73;15.20;;;;;;;;;;4978806;28;20096;-87
2021/10/31 03:14:16;;;;;;;22.60;14.82;;;;;;;;;;4978884;28;20033;-86
2021/10/31 03:16:42;;;;;;;22.10;14.73;;;;;;;;;;4978880;28;20054;-85
2021/10/31 03:19:08;;;;;;;22.17;15.98;;;;;;;;;;4978617;28;20033;-86
2021/10/31 03:21:40;;;;;;;26.23;16.70;;;;;;;;;;4962668;28;20045;-85
2021/10/31 03:24:06;;;;;;;25.75;17.60;;;;;;;;;;4962546;28;20034;-85
2021/10/31 03:26:33;;;;;;;24.85;16.55;;;;;;;;;;4990594;28;20061;-86
2021/10/31 03:28:59;;;;;;;27.70;18.35;;;;;;;;;;5019592;28;20084;-85
2021/10/31 03:31:25;;;;;;;28.77;17.58;;;;;;;;;;5019642;28;20040;-86
2021/10/31 03:33:51;;;;;;;27.33;17.65;;;;;;;;;;5019696;28;20026;-86
2021/10/31 03:36:17;;;;;;;27.50;17.48;;;;;;;;;;5001984;28;20022;-85
2021/10/31 03:38:43;;;;;;;29.52;19.00;;;;;;;;;;5014176;28;20033;-90
2021/10/31 03:41:09;;;;;;;29.23;18.10;;;;;;;;;;5038851;28;20080;-89
2021/10/31 03:43:35;;;;;;;40.40;25.60;;;;;;;;;;5021581;28;20416;-89
2021/10/31 03:46:01;;;;;;;56.15;34.92;;;;;;;;;;5038859;28;20320;-89
2021/10/31 03:48:27;;;;;;;57.03;35.55;;;;;;;;;;5021709;28;20052;-89
2021/10/31 03:50:53;;;;;;;52.17;33.30;;;;;;;;;;5039246;28;20025;-89
2021/10/31 03:53:20;;;;;;;40.88;26.98;;;;;;;;;;5039090;28;20017;-87
2021/10/31 03:55:46;;;;;;;34.28;21.88;;;;;;;;;;5021366;28;20059;-87
2021/10/31 04:01:16;;;;;;;30.98;20.83;;;;;;;;;;5039057;28;20072;-88
2021/10/31 04:03:43;;;;;;;26.38;18.15;;;;;;;;;;5038897;28;20109;-88
2021/10/31 04:06:09;;;;;;;36.28;21.10;;;;;;;;;;5004287;28;20064;-88
2021/10/31 04:08:35;;;;;;;46.35;25.98;;;;;;;;;;5038215;28;20091;-88
2021/10/31 04:11:01;;;;;;;60.85;32.65;;;;;;;;;;5020668;28;20025;-87
2021/10/31 04:16:31;;;;;;;45.53;26.27;;;;;;;;;;5037952;28;20487;-88
2021/10/31 04:18:57;;;;;;;39.70;22.75;;;;;;;;;;5038338;28;20051;-88
2021/10/31 04:21:23;;;;;;;32.83;20.35;;;;;;;;;;5020261;28;20037;-88
2021/10/31 04:23:49;;;;;;;27.00;17.92;;;;;;;;;;5019995;28;20040;-90
2021/10/31 04:26:52;;;;;;;27.45;19.10;;;;;;;;;;5037981;28;20025;-88
2021/10/31 04:29:18;;;;;;;27.50;18.13;;;;;;;;;;5020531;28;20036;-88
2021/10/31 04:31:44;;;;;;;26.83;18.05;;;;;;;;;;5020705;28;20024;-89
2021/10/31 04:34:10;;;;;;;24.38;17.45;;;;;;;;;;5038046;28;20029;-88
2021/10/31 04:36:36;;;;;;;27.63;17.92;;;;;;;;;;5020334;28;20022;-88
2021/10/31 04:39:05;;;;;;;22.58;16.42;;;;;;;;;;5038087;28;20329;-89
2021/10/31 04:41:31;;;;;;;22.70;16.58;;;;;;;;;;5020809;28;20400;-88
2021/10/31 04:43:58;;;;;;;25.25;16.10;;;;;;;;;;5038061;28;20059;-88
2021/10/31 04:46:24;;;;;;;25.83;16.50;;;;;;;;;;5020459;28;20032;-88
2021/10/31 04:48:50;;;;;;;28.30;16.95;;;;;;;;;;5037592;28;20051;-89
2021/10/31 04:51:16;;;;;;;29.00;16.10;;;;;;;;;;5020535;28;20026;-87
2021/10/31 04:53:43;;;;;;;21.83;15.35;;;;;;;;;;5020309;28;20022;-90
2021/10/31 04:56:09;;;;;;;23.98;16.25;;;;;;;;;;5020457;28;20022;-89
2021/10/31 04:59:03;;;;;;;26.42;17.30;;;;;;;;;;5020427;28;20026;-89
2021/10/31 05:01:30;;;;;;;31.42;19.13;;;;;;;;;;5020167;28;20029;-89
2021/10/31 05:03:56;;;;;;;33.05;19.00;;;;;;;;;;5020758;28;20037;-89
2021/10/31 05:06:22;;;;;;;27.75;18.40;;;;;;;;;;5037263;28;20021;-88
2021/10/31 05:08:48;;;;;;;25.42;17.30;;;;;;;;;;5020265;28;20120;-88
2021/10/31 05:11:14;;;;;;;26.80;17.48;;;;;;;;;;5037468;28;20029;-88
2021/10/31 05:13:41;;;;;;;27.17;17.52;;;;;;;;;;5037261;28;20412;-89
2021/10/31 05:16:07;;;;;;;28.27;17.90;;;;;;;;;;5019995;28;20042;-88
2021/10/31 05:18:34;;;;;;;25.95;17.58;;;;;;;;;;5037843;28;20049;-89
2021/10/31 05:21:00;;;;;;;30.70;19.35;;;;;;;;;;5020138;28;20411;-89
2021/10/31 05:23:27;;;;;;;28.88;19.35;;;;;;;;;;5037392;28;20034;-89
2021/10/31 05:25:53;;;;;;;27.75;19.25;;;;;;;;;;5037453;28;20029;-89
2021/10/31 05:28:20;;;;;;;30.65;19.45;;;;;;;;;;5038032;28;20034;-92
2021/10/31 05:30:46;;;;;;;28.58;18.30;;;;;;;;;;5038841;28;20462;-94
2021/10/31 05:33:13;;;;;;;25.17;18.08;;;;;;;;;;5021332;28;20033;-93
2021/10/31 05:35:39;;;;;;;27.95;17.75;;;;;;;;;;5041476;28;20412;-89
2021/10/31 05:38:06;;;;;;;27.40;17.77;;;;;;;;;;5023776;28;20432;-88
2021/10/31 05:40:32;;;;;;;26.65;18.17;;;;;;;;;;5023784;28;20031;-88
2021/10/31 05:46:02;;;;;;;29.73;19.00;;;;;;;;;;5041466;28;20308;-88
2021/10/31 05:48:28;;;;;;;25.85;17.75;;;;;;;;;;5040621;28;20026;-88
2021/10/31 05:50:55;;;;;;;24.95;17.83;;;;;;;;;;5023503;28;20041;-88
2021/10/31 05:53:21;;;;;;;28.45;18.95;;;;;;;;;;5041039;28;20032;-92
2021/10/31 05:55:47;;;;;;;30.38;20.45;;;;;;;;;;5041067;28;20400;-87
2021/10/31 05:58:13;;;;;;;32.42;20.88;;;;;;;;;;5023500;28;20057;-85
2021/10/31 06:00:39;;;;;;;42.90;23.67;;;;;;;;;;5040734;28;20068;-88
2021/10/31 06:03:06;;;;;;;38.70;22.75;;;;;;;;;;5040488;28;20104;-88
2021/10/31 06:05:32;;;;;;;30.40;20.02;;;;;;;;;;5040478;28;20055;-89
2021/10/31 06:07:58;;;;;;;32.47;20.40;;;;;;;;;;5023310;28;20044;-87
2021/10/31 06:10:25;;;;;;;43.47;23.23;;;;;;;;;;5041028;28;20022;-86
2021/10/31 06:13:28;;;;;;;41.53;27.98;;;;;;;;;;5022849;28;20038;-89
2021/10/31 06:15:54;;;;;;;48.10;23.50;;;;;;;;;;5022964;28;20041;-88
2021/10/31 06:18:20;;;;;;;35.58;22.63;;;;;;;;;;5024582;28;20076;-85
2021/10/31 06:20:47;;;;;;;56.70;26.55;;;;;;;;;;5019415;28;20104;-90
2021/10/31 06:23:16;;;;;;;60.97;25.17;;;;;;;;;;5040237;28;20041;-88
2021/10/31 06:25:42;;;;;;;49.13;23.67;;;;;;;;;;5040437;28;20026;-88
2021/10/31 06:28:27;;;;;;;43.53;21.40;;;;;;;;;;5040111;28;20026;-88
2021/10/31 06:30:53;;;;;;;36.22;20.05;;;;;;;;;;5040038;28;20045;-88
2021/10/31 06:33:19;;;;;;;31.42;18.23;;;;;;;;;;5022585;28;20038;-89
2021/10/31 06:35:45;;;;;;;29.27;17.65;;;;;;;;;;5040221;28;20104;-88
2021/10/31 06:38:12;;;;;;;31.23;17.25;;;;;;;;;;5040006;28;20104;-90
2021/10/31 06:40:38;;;;;;;40.08;19.13;;;;;;;;;;5022725;28;20416;-90
2021/10/31 06:46:27;;;;;;;25.02;16.88;;;;;;;;;;5039055;28;20060;-89
2021/10/31 06:49:22;;;;;;;23.52;15.40;;;;;;;;;;5022116;28;20088;-89
2021/10/31 06:51:48;;;;;;;25.45;16.95;;;;;;;;;;4943963;29;20047;-89
2021/10/31 07:03:36;;;;;;;20.50;14.15;;;;;;;;;;4774533;30;20028;-90
2021/10/31 07:06:04;;;;;;;34.90;16.00;;;;;;;;;;4774632;30;20043;-90
2021/10/31 07:08:30;;;;;;;23.52;14.85;;;;;;;;;;4774508;30;20235;-89
2021/10/31 07:10:56;;;;;;;20.58;14.38;;;;;;;;;;4774858;30;20035;-90
2021/10/31 07:16:25;;;;;;;;;;;;;;;;;;4774952;30;20236;-90
2021/10/31 07:18:52;;;;;;;20.77;14.10;;;;;;;;;;4774578;30;19940;-89
2021/10/31 07:21:18;;;;;;;20.60;14.00;;;;;;;;;;4774506;30;20489;-90
2021/10/31 07:23:44;;;;;;;21.92;14.10;;;;;;;;;;4759653;30;20440;-90
2021/10/31 07:26:10;;;;;;;22.95;15.20;;;;;;;;;;4774567;30;20044;-89
2021/10/31 07:28:36;;;;;;;21.58;14.18;;;;;;;;;;4795451;29;20061;-90
2021/10/31 07:31:04;;;;;;;21.88;13.93;;;;;;;;;;4813112;29;20039;-91
2021/10/31 07:33:31;;;;;;;19.17;13.45;;;;;;;;;;4813088;29;20038;-90
2021/10/31 07:35:57;;;;;;;20.70;13.05;;;;;;;;;;4828996;29;20030;-89
2021/10/31 07:38:23;;;;;;;18.45;13.05;;;;;;;;;;4862500;29;20041;-90
2021/10/31 07:40:49;;;;;;;20.98;13.10;;;;;;;;;;4968811;28;20088;-89
2021/10/31 07:49:22;;;;;;;15.63;12.05;;;;;;;;;;5019317;28;20037;-90
2021/10/31 07:51:48;;;;;;;19.48;12.07;;;;;;;;;;5001860;28;20116;-89
2021/10/31 07:54:17;;;;;;;19.30;11.95;;;;;;;;;;5018997;28;20361;-90
2021/10/31 07:56:44;;;;;;;19.45;11.75;;;;;;;;;;5019149;28;20156;-88
2021/10/31 08:02:17;;;;;;;15.95;10.30;;;;;;;;;;5019170;28;20462;-90
2021/10/31 08:04:46;;;;;;;18.98;11.45;;;;;;;;;;5019032;28;20056;-90
2021/10/31 08:07:13;;;;;;;18.55;12.13;;;;;;;;;;5018604;28;20033;-90
2021/10/31 08:09:39;;;;;;;15.82;11.18;;;;;;;;;;5018948;28;20025;-91
2021/10/31 08:12:06;;;;;;;17.48;11.15;;;;;;;;;;5018949;28;20368;-90
2021/10/31 08:14:53;;;;;;;12.63;10.02;;;;;;;;;;5020506;28;20025;-89
2021/10/31 08:17:21;;;;;;;15.00;10.80;;;;;;;;;;5001538;28;20029;-90
2021/10/31 08:19:48;;;;;;;15.07;10.52;;;;;;;;;;5001233;28;20065;-89
2021/10/31 08:22:14;;;;;;;13.05;9.88;;;;;;;;;;5000991;28;20041;-90
2021/10/31 08:24:40;;;;;;;13.25;10.07;;;;;;;;;;5018832;28;20077;-90
2021/10/31 08:27:31;;;;;;;14.52;10.75;;;;;;;;;;5018334;28;20030;-90
2021/10/31 08:29:56;;;;;;;19.20;11.35;;;;;;;;;;5017808;28;20421;-89
2021/10/31 08:32:25;;;;;;;20.02;11.75;;;;;;;;;;5018342;28;20025;-90
2021/10/31 08:34:51;;;;;;;16.83;10.10;;;;;;;;;;5018623;28;20026;-90
2021/10/31 08:37:17;;;;;;;18.60;10.38;;;;;;;;;;5000941;28;20064;-91
2021/10/31 08:39:43;;;;;;;14.40;9.80;;;;;;;;;;5018464;28;20033;-90
2021/10/31 08:42:09;;;;;;;18.40;11.77;;;;;;;;;;5018187;28;20403;-91
2021/10/31 08:44:36;;;;;;;21.17;13.20;;;;;;;;;;5000964;28;20029;-91
2021/10/31 08:47:03;;;;;;;19.88;13.02;;;;;;;;;;5018345;28;20030;-90
2021/10/31 08:49:29;;;;;;;16.13;9.95;;;;;;;;;;5018016;28;20014;-91
2021/10/31 08:51:55;;;;;;;18.95;13.02;;;;;;;;;;5016805;28;20030;-91
2021/10/31 08:54:51;;;;;;;24.40;14.50;;;;;;;;;;5000747;28;20018;-91
2021/10/31 08:57:17;;;;;;;18.77;13.35;;;;;;;;;;5000515;28;20041;-91
2021/10/31 08:59:43;;;;;;;22.95;15.05;;;;;;;;;;5017776;28;20030;-90
2021/10/31 09:02:09;;;;;;;24.38;14.48;;;;;;;;;;5000345;28;20038;-93
2021/10/31 09:04:39;;;;;;;22.15;13.23;;;;;;;;;;5018121;28;20026;-90
2021/10/31 09:07:05;;;;;;;23.80;15.05;;;;;;;;;;4999786;28;20042;-90
2021/10/31 09:09:31;;;;;;;22.00;15.00;;;;;;;;;;5017155;28;20026;-91
2021/10/31 09:11:57;;;;;;;22.58;13.27;;;;;;;;;;5017888;28;20032;-90
2021/10/31 09:14:23;;;;;;;22.27;13.68;;;;;;;;;;5017815;28;20018;-90
2021/10/31 09:16:49;;;;;;;21.63;12.57;;;;;;;;;;5035464;28;20054;-91
2021/10/31 09:19:16;;;;;;;22.45;12.18;;;;;;;;;;5019756;28;20493;-91
2021/10/31 09:21:43;;;;;;;20.95;11.10;;;;;;;;;;5020128;28;20156;-90
2021/10/31 09:24:09;;;;;;;23.73;11.30;;;;;;;;;;5037759;28;20028;-92
2021/10/31 09:26:35;;;;;;;23.00;10.43;;;;;;;;;;5037675;28;20056;-91
2021/10/31 09:29:04;;;;;;;14.25;9.80;;;;;;;;;;5019210;28;20046;-91
2021/10/31 09:31:30;;;;;;;17.23;10.00;;;;;;;;;;5037455;28;20048;-91
2021/10/31 09:33:58;;;;;;;17.50;10.68;;;;;;;;;;5037704;28;20041;-90
2021/10/31 09:36:24;;;;;;;16.10;10.50;;;;;;;;;;5037199;28;20052;-91
2021/10/31 09:38:53;;;;;;;16.77;11.32;;;;;;;;;;5037258;28;20052;-90
2021/10/31 09:41:19;;;;;;;14.27;10.50;;;;;;;;;;5020600;28;20029;-90
2021/10/31 09:44:29;;;;;;;22.90;10.82;;;;;;;;;;5037523;28;20025;-91
2021/10/31 09:46:55;;;;;;;14.00;10.07;;;;;;;;;;5019642;28;20033;-91
2021/10/31 09:49:22;;;;;;;20.73;13.60;;;;;;;;;;5019850;28;20029;-91
2021/10/31 09:51:49;;;;;;;16.45;10.68;;;;;;;;;;5020108;28;20049;-93
2021/10/31 09:54:16;;;;;;;17.13;10.07;;;;;;;;;;5036968;28;20021;-89
2021/10/31 09:56:42;;;;;;;21.48;14.55;;;;;;;;;;5037374;28;20021;-90
2021/10/31 10:05:16;;;;;;;18.27;11.25;;;;;;;;;;5037282;28;20375;-91
2021/10/31 10:07:43;;;;;;;18.73;11.48;;;;;;;;;;5036726;28;20034;-91
2021/10/31 10:10:12;;;;;;;17.98;11.18;;;;;;;;;;5037550;28;20312;-91
2021/10/31 10:12:38;;;;;;;14.60;10.82;;;;;;;;;;5037134;28;20013;-90
2021/10/31 10:15:36;;;;;;;18.30;10.75;;;;;;;;;;5036279;28;20446;-90
2021/10/31 10:18:02;;;;;;;19.67;12.35;;;;;;;;;;4999592;28;20045;-91
2021/10/31 10:20:36;;;;;;;30.98;12.85;;;;;;;;;;5019662;28;20026;-91
2021/10/31 10:23:11;;;;;;;25.58;15.35;;;;;;;;;;5020969;28;20310;-92
2021/10/31 10:25:41;;;;;;;23.30;12.02;;;;;;;;;;4987448;28;20026;-90
2021/10/31 10:34:14;;;;;;;24.90;14.60;;;;;;;;;;5020795;28;20052;-91
2021/10/31 10:36:49;;;;;;;17.15;11.50;;;;;;;;;;5020629;28;20435;-90
2021/10/31 10:39:16;;;;;;;18.58;12.75;;;;;;;;;;5002445;28;20034;-91
2021/10/31 10:41:42;;;;;;;18.23;12.65;;;;;;;;;;5020274;28;20397;-90
2021/10/31 10:44:27;;;;;;;22.35;13.00;;;;;;;;;;5003211;28;20022;-90
2021/10/31 10:46:57;;;;;;;20.83;12.73;;;;;;;;;;5020657;28;20022;-92
2021/10/31 10:49:24;;;;;;;19.23;11.43;;;;;;;;;;5002721;28;20033;-91
2021/10/31 10:52:08;;;;;;;15.07;10.52;;;;;;;;;;5020588;28;20026;-91
2021/10/31 10:54:35;;;;;;;18.20;12.90;;;;;;;;;;5002978;28;20319;-90
2021/10/31 10:57:06;;;;;;;19.08;11.63;;;;;;;;;;5003229;28;20034;-91
2021/10/31 11:00:09;;;;;;;24.87;14.10;;;;;;;;;;5020458;28;20033;-91
2021/10/31 11:02:35;;;;;;;23.38;14.38;;;;;;;;;;5020066;28;20420;-93
2021/10/31 11:05:03;;;;;;;17.20;11.07;;;;;;;;;;5020327;28;20089;-92
2021/10/31 11:07:30;;;;;;;22.55;12.82;;;;;;;;;;5002583;28;20065;-91
2021/10/31 11:09:56;;;;;;;19.63;10.63;;;;;;;;;;5019651;28;20387;-92
2021/10/31 11:12:39;;;;;;;17.45;11.25;;;;;;;;;;5019832;28;20029;-92
2021/10/31 11:15:09;;;;;;;21.70;13.18;;;;;;;;;;5002615;28;20145;-91
2021/10/31 11:17:46;;;;;;;16.33;10.98;;;;;;;;;;5038173;28;20050;-91
2021/10/31 11:20:17;;;;;;;13.55;9.18;;;;;;;;;;5039479;28;20106;-91
2021/10/31 11:22:45;;;;;;;14.63;11.05;;;;;;;;;;5039758;28;20033;-92
2021/10/31 11:25:12;;;;;;;17.88;12.00;;;;;;;;;;5039500;28;20458;-91
2021/10/31 11:27:39;;;;;;;14.65;10.13;;;;;;;;;;5039225;28;20029;-91
2021/10/31 11:30:06;;;;;;;20.33;11.57;;;;;;;;;;5021737;28;20051;-91
2021/10/31 11:32:32;;;;;;;17.48;10.85;;;;;;;;;;5038843;28;20032;-91
2021/10/31 11:35:01;;;;;;;17.23;10.68;;;;;;;;;;5038969;28;20028;-90
2021/10/31 11:37:33;;;;;;;14.25;10.65;;;;;;;;;;5039155;28;20041;-86
2021/10/31 11:40:01;;;;;;;19.65;11.82;;;;;;;;;;5021536;28;20037;-86
2021/10/31 11:42:28;;;;;;;20.23;11.63;;;;;;;;;;5038718;28;20432;-86
2021/10/31 11:48:16;;;;;;;21.40;12.95;;;;;;;;;;5038881;28;20064;-85
2021/10/31 11:51:00;;;;;;;15.00;10.85;;;;;;;;;;5039131;28;20018;-85
2021/10/31 11:53:28;;;;;;;16.10;11.02;;;;;;;;;;5038999;28;20400;-85
2021/10/31 11:55:58;;;;;;;17.60;10.70;;;;;;;;;;5020944;28;20068;-85
2021/10/31 12:01:32;;;;;;;18.42;12.07;;;;;;;;;;5038826;28;20068;-85
2021/10/31 12:04:00;;;;;;;15.50;11.30;;;;;;;;;;5020623;28;20173;-85
2021/10/31 12:06:26;;;;;;;21.23;11.80;;;;;;;;;;5038623;28;20057;-85
2021/10/31 12:08:59;;;;;;;18.38;12.15;;;;;;;;;;5036826;28;20068;-85
2021/10/31 12:11:31;;;;;;;18.23;12.02;;;;;;;;;;5018613;28;20026;-86
2021/10/31 12:13:57;;;;;;;;;;;;;;;;;;5019199;28;20018;-85
2021/10/31 12:16:23;;;;;;;16.38;10.88;;;;;;;;;;5018418;28;19928;-84
2021/10/31 12:19:16;;;;;;;14.23;9.40;;;;;;;;;;5018760;28;20045;-85
2021/10/31 12:21:44;;;;;;;14.13;9.90;;;;;;;;;;5014168;28;20086;-85
2021/10/31 12:24:12;;;;;;;16.63;11.23;;;;;;;;;;5018379;28;20093;-85
2021/10/31 12:26:39;;;;;;;18.63;11.57;;;;;;;;;;5018245;28;20032;-84
2021/10/31 12:29:16;;;;;;;17.20;12.57;;;;;;;;;;5018246;28;20022;-86
2021/10/31 12:31:51;;;;;;;19.67;12.80;;;;;;;;;;5000936;28;20320;-85
2021/10/31 12:34:21;;;;;;;14.98;11.27;;;;;;;;;;5018046;28;20029;-84
2021/10/31 12:36:48;;;;;;;16.50;10.43;;;;;;;;;;5018291;28;20022;-84
2021/10/31 12:39:27;;;;;;;18.52;12.18;;;;;;;;;;5017966;28;20061;-84
2021/10/31 12:42:12;;;;;;;18.80;12.23;;;;;;;;;;5018074;28;20519;-84
2021/10/31 12:44:39;;;;;;;19.08;13.35;;;;;;;;;;5017404;28;20033;-85
2021/10/31 12:47:13;;;;;;;20.45;12.77;;;;;;;;;;5018024;28;20030;-84
2021/10/31 12:49:39;;;;;;;16.75;10.48;;;;;;;;;;5000693;28;20164;-85
2021/10/31 12:52:18;;;;;;;22.55;12.50;;;;;;;;;;5018328;28;20021;-85
2021/10/31 12:54:44;;;;;;;19.25;12.57;;;;;;;;;;5017763;28;20022;-84
2021/10/31 12:57:11;;;;;;;21.88;12.40;;;;;;;;;;5000025;28;20077;-85
2021/10/31 12:59:47;;;;;;;21.27;11.65;;;;;;;;;;5017613;28;20101;-84
2021/10/31 13:02:15;;;;;;;22.27;12.05;;;;;;;;;;4999996;28;20037;-85
2021/10/31 13:04:47;;;;;;;21.85;13.43;;;;;;;;;;5017866;28;20083;-86
2021/10/31 13:07:14;;;;;;;20.30;13.85;;;;;;;;;;5000377;28;20022;-85
2021/10/31 13:09:40;;;;;;;19.85;12.25;;;;;;;;;;5017720;28;20030;-85
2021/10/31 13:12:06;;;;;;;26.25;15.23;;;;;;;;;;5017484;28;20341;-85
2021/10/31 13:14:35;;;;;;;18.33;13.15;;;;;;;;;;4999938;28;20030;-85
2021/10/31 13:17:03;;;;;;;19.13;14.05;;;;;;;;;;5017367;28;20440;-85
2021/10/31 13:19:33;;;;;;;19.10;12.32;;;;;;;;;;5017572;28;20026;-84
2021/10/31 13:22:01;;;;;;;18.23;12.65;;;;;;;;;;4999858;28;20038;-83
2021/10/31 13:24:28;;;;;;;18.45;12.55;;;;;;;;;;5017658;28;20018;-84
2021/10/31 13:26:55;;;;;;;19.83;13.05;;;;;;;;;;4999754;28;20080;-85
2021/10/31 13:29:21;;;;;;;21.23;13.55;;;;;;;;;;5017447;28;20030;-85
2021/10/31 13:31:47;;;;;;;19.38;11.73;;;;;;;;;;5017531;28;20097;-85
2021/10/31 13:34:13;;;;;;;18.67;11.43;;;;;;;;;;5017313;28;20496;-85
2021/10/31 13:36:39;;;;;;;15.75;11.88;;;;;;;;;;5017306;28;20030;-84
2021/10/31 13:39:09;;;;;;;27.70;14.60;;;;;;;;;;5000024;28;20037;-84
2021/10/31 13:41:35;;;;;;;17.15;11.68;;;;;;;;;;5000127;28;20436;-85
2021/10/31 13:44:21;;;;;;;17.17;11.18;;;;;;;;;;5017330;28;20036;-85
2021/10/31 13:46:54;;;;;;;15.90;11.73;;;;;;;;;;4999379;28;20037;-84
2021/10/31 13:49:22;;;;;;;22.67;13.13;;;;;;;;;;5017307;28;20022;-84
2021/10/31 13:51:49;;;;;;;18.70;12.52;;;;;;;;;;5017560;28;20344;-84
2021/10/31 13:54:16;;;;;;;20.45;13.88;;;;;;;;;;5017674;28;20022;-85
2021/10/31 13:56:44;;;;;;;28.10;16.17;;;;;;;;;;5021029;28;20033;-84
2021/10/31 13:59:13;;;;;;;24.92;15.52;;;;;;;;;;5021032;28;20057;-84
2021/10/31 14:01:41;;;;;;;23.83;13.65;;;;;;;;;;5028513;28;20032;-81
2021/10/31 14:04:19;;;;;;;27.90;17.55;;;;;;;;;;5040526;28;20018;-81
2021/10/31 14:06:46;;;;;;;18.67;12.73;;;;;;;;;;5022629;28;20067;-81
2021/10/31 14:09:13;;;;;;;18.63;12.20;;;;;;;;;;5039977;28;20404;-81
2021/10/31 14:12:00;;;;;;;19.90;13.02;;;;;;;;;;5022713;28;20450;-81
2021/10/31 14:14:32;;;;;;;20.15;12.80;;;;;;;;;;5040112;28;20017;-80
2021/10/31 14:17:10;;;;;;;27.85;14.85;;;;;;;;;;5039935;28;20049;-81
2021/10/31 14:19:36;;;;;;;19.17;13.13;;;;;;;;;;5039616;28;20030;-81
2021/10/31 14:22:03;;;;;;;22.42;14.80;;;;;;;;;;5022771;28;20457;-80
2021/10/31 14:24:29;;;;;;;24.50;16.45;;;;;;;;;;5039651;28;20025;-81
2021/10/31 14:26:56;;;;;;;26.65;13.85;;;;;;;;;;5039881;28;20021;-81
2021/10/31 14:29:23;;;;;;;24.25;14.23;;;;;;;;;;5021819;28;20029;-81
2021/10/31 14:31:51;;;;;;;19.52;12.20;;;;;;;;;;5040213;28;20045;-81
2021/10/31 14:34:17;;;;;;;29.45;12.77;;;;;;;;;;5039666;28;20018;-81
2021/10/31 14:36:44;;;;;;;22.73;13.43;;;;;;;;;;5039661;28;20018;-81
2021/10/31 14:39:10;;;;;;;27.67;15.23;;;;;;;;;;5039577;28;20407;-81
2021/10/31 14:41:37;;;;;;;27.80;15.65;;;;;;;;;;5039630;28;20093;-81
2021/10/31 14:44:07;;;;;;;24.17;16.23;;;;;;;;;;5039636;28;20017;-81
2021/10/31 14:46:36;;;;;;;27.02;15.88;;;;;;;;;;5039273;28;20068;-81
2021/10/31 14:49:04;;;;;;;26.42;16.13;;;;;;;;;;5039147;28;20367;-81
2021/10/31 14:51:52;;;;;;;24.63;15.77;;;;;;;;;;5039399;28;20420;-81
2021/10/31 14:54:20;;;;;;;28.42;18.02;;;;;;;;;;5039362;28;20025;-81
2021/10/31 14:56:53;;;;;;;25.45;17.90;;;;;;;;;;5039273;28;20032;-81
2021/10/31 14:59:21;;;;;;;24.08;16.45;;;;;;;;;;5039287;28;20442;-81
2021/10/31 15:01:49;;;;;;;22.10;15.73;;;;;;;;;;5039271;28;20080;-81
2021/10/31 15:04:19;;;;;;;25.17;16.23;;;;;;;;;;5039393;28;20022;-81
2021/10/31 15:06:46;;;;;;;27.67;14.88;;;;;;;;;;5038040;28;20415;-81
2021/10/31 15:09:12;;;;;;;25.20;15.23;;;;;;;;;;5038998;28;20037;-81
2021/10/31 15:11:39;;;;;;;26.02;14.93;;;;;;;;;;5021431;28;20312;-81
2021/10/31 15:14:05;;;;;;;26.02;16.10;;;;;;;;;;5038858;28;20392;-81
2021/10/31 15:16:31;;;;;;;28.63;18.58;;;;;;;;;;5038706;28;20045;-81
2021/10/31 15:18:59;;;;;;;36.67;20.20;;;;;;;;;;5038941;28;20333;-81
2021/10/31 15:21:27;;;;;;;35.72;21.42;;;;;;;;;;5039040;28;20026;-81
2021/10/31 15:23:54;;;;;;;41.25;20.52;;;;;;;;;;5021394;28;20025;-80
2021/10/31 15:26:20;;;;;;;35.85;20.40;;;;;;;;;;5038947;28;20230;-80
2021/10/31 15:28:46;;;;;;;43.55;24.75;;;;;;;;;;5038446;28;20037;-81
2021/10/31 15:31:12;;;;;;;57.08;29.73;;;;;;;;;;5021062;28;20124;-81
2021/10/31 15:33:40;;;;;;;69.53;35.63;;;;;;;;;;5038762;28;20068;-81
2021/10/31 15:36:07;;;;;;;67.60;32.83;;;;;;;;;;5038720;28;20021;-81
2021/10/31 15:38:34;;;;;;;65.95;34.72;;;;;;;;;;5038498;28;20033;-81
2021/10/31 15:41:01;;;;;;;68.57;34.05;;;;;;;;;;5020950;28;20027;-81
2021/10/31 15:43:29;;;;;;;70.13;35.95;;;;;;;;;;5038468;28;20017;-80